sensor_id;sensor_type;location;lat;lon;timestamp;pressure;altitude;pressure_sealevel;temperature;humidity
17362;BME280;8798;51.938;4.348;2023-02-15T00:01:52;102398.38;;;5.88;72.37
17362;BME280;8798;51.938;4.348;2023-02-15T00:04:21;102401.16;;;5.86;72.78
17362;BME280;8798;51.938;4.348;2023-02-15T00:06:50;102396.84;;;5.84;72.87
17362;BME280;8798;51.938;4.348;2023-02-15T00:09:18;102404.91;;;5.82;72.55
17362;BME280;8798;51.938;4.348;2023-02-15T00:11:45;102406.81;;;5.80;73.01
17362;BME280;8798;51.938;4.348;2023-02-15T00:14:21;102394.56;;;5.76;72.41
17362;BME280;8798;51.938;4.348;2023-02-15T00:16:50;102386.75;;;5.73;72.63
17362;BME280;8798;51.938;4.348;2023-02-15T00:19:20;102383.28;;;5.71;73.00
17362;BME280;8798;51.938;4.348;2023-02-15T00:21:48;102392.19;;;5.71;73.01
17362;BME280;8798;51.938;4.348;2023-02-15T00:24:18;102393.09;;;5.70;73.21
17362;BME280;8798;51.938;4.348;2023-02-15T00:26:47;102391.47;;;5.68;72.77
17362;BME280;8798;51.938;4.348;2023-02-15T00:29:17;102400.41;;;5.67;72.70
17362;BME280;8798;51.938;4.348;2023-02-15T00:31:47;102394.28;;;5.65;73.17
17362;BME280;8798;51.938;4.348;2023-02-15T00:34:17;102395.22;;;5.64;73.25
17362;BME280;8798;51.938;4.348;2023-02-15T00:36:45;102397.13;;;5.62;73.05
17362;BME280;8798;51.938;4.348;2023-02-15T00:39:13;102391.88;;;5.60;73.45
17362;BME280;8798;51.938;4.348;2023-02-15T00:41:42;102394.59;;;5.58;73.08
17362;BME280;8798;51.938;4.348;2023-02-15T00:44:09;102381.44;;;5.55;72.65
17362;BME280;8798;51.938;4.348;2023-02-15T00:46:37;102381.63;;;5.52;72.58
17362;BME280;8798;51.938;4.348;2023-02-15T00:49:07;102373.69;;;5.51;73.06
17362;BME280;8798;51.938;4.348;2023-02-15T00:51:34;102381.78;;;5.49;72.81
17362;BME280;8798;51.938;4.348;2023-02-15T00:54:03;102379.19;;;5.48;72.65
17362;BME280;8798;51.938;4.348;2023-02-15T00:56:30;102376.59;;;5.46;73.65
17362;BME280;8798;51.938;4.348;2023-02-15T00:58:58;102384.69;;;5.45;72.50
17362;BME280;8798;51.938;4.348;2023-02-15T01:01:26;102381.22;;;5.43;73.36
17362;BME280;8798;51.938;4.348;2023-02-15T01:03:54;102389.28;;;5.41;73.53
17362;BME280;8798;51.938;4.348;2023-02-15T01:06:23;102378.75;;;5.39;73.11
17362;BME280;8798;51.938;4.348;2023-02-15T01:08:51;102389.41;;;5.39;73.75
17362;BME280;8798;51.938;4.348;2023-02-15T01:11:20;102391.28;;;5.37;73.15
17362;BME280;8798;51.938;4.348;2023-02-15T01:13:50;102397.53;;;5.36;72.88
17362;BME280;8798;51.938;4.348;2023-02-15T01:16:18;102405.50;;;5.36;73.29
17362;BME280;8798;51.938;4.348;2023-02-15T01:18:46;102398.47;;;5.35;73.45
17362;BME280;8798;51.938;4.348;2023-02-15T01:21:16;102402.94;;;5.35;73.40
17362;BME280;8798;51.938;4.348;2023-02-15T01:23:46;102410.94;;;5.35;73.37
17362;BME280;8798;51.938;4.348;2023-02-15T01:26:14;102410.09;;;5.34;73.72
17362;BME280;8798;51.938;4.348;2023-02-15T01:28:43;102413.69;;;5.33;73.61
17362;BME280;8798;51.938;4.348;2023-02-15T01:31:12;102408.50;;;5.30;73.47
17362;BME280;8798;51.938;4.348;2023-02-15T01:33:41;102404.22;;;5.28;72.98
17362;BME280;8798;51.938;4.348;2023-02-15T01:36:09;102392.75;;;5.26;73.45
17362;BME280;8798;51.938;4.348;2023-02-15T01:38:37;102391.97;;;5.24;73.44
17362;BME280;8798;51.938;4.348;2023-02-15T01:41:08;102399.19;;;5.22;73.33
17362;BME280;8798;51.938;4.348;2023-02-15T01:43:52;102394.00;;;5.18;72.99
17362;BME280;8798;51.938;4.348;2023-02-15T01:46:23;102389.63;;;5.17;73.53
17362;BME280;8798;51.938;4.348;2023-02-15T01:48:57;102381.81;;;5.14;72.92
17362;BME280;8798;51.938;4.348;2023-02-15T01:51:29;102389.00;;;5.12;73.55
17362;BME280;8798;51.938;4.348;2023-02-15T01:54:02;102386.34;;;5.12;73.15
17362;BME280;8798;51.938;4.348;2023-02-15T01:56:36;102382.91;;;5.10;72.81
17362;BME280;8798;51.938;4.348;2023-02-15T01:59:08;102378.66;;;5.06;73.40
17362;BME280;8798;51.938;4.348;2023-02-15T02:01:37;102361.88;;;5.04;73.07
17362;BME280;8798;51.938;4.348;2023-02-15T02:04:10;102363.84;;;5.01;73.46
17362;BME280;8798;51.938;4.348;2023-02-15T02:06:41;102355.19;;;4.97;73.59
17362;BME280;8798;51.938;4.348;2023-02-15T02:09:08;102357.06;;;4.95;73.19
17362;BME280;8798;51.938;4.348;2023-02-15T02:11:38;102350.94;;;4.93;73.23
17362;BME280;8798;51.938;4.348;2023-02-15T02:14:07;102351.09;;;4.90;72.98
17362;BME280;8798;51.938;4.348;2023-02-15T02:16:41;102343.19;;;4.88;72.99
17362;BME280;8798;51.938;4.348;2023-02-15T02:25:42;102341.75;;;4.81;73.45
17362;BME280;8798;51.938;4.348;2023-02-15T02:31:33;102325.22;;;4.74;73.08
17362;BME280;8798;51.938;4.348;2023-02-15T02:34:11;102326.25;;;4.72;73.75
17362;BME280;8798;51.938;4.348;2023-02-15T02:36:46;102325.41;;;4.71;73.37
17362;BME280;8798;51.938;4.348;2023-02-15T02:39:23;102334.31;;;4.70;73.38
17362;BME280;8798;51.938;4.348;2023-02-15T02:42:00;102337.91;;;4.69;73.46
17362;BME280;8798;51.938;4.348;2023-02-15T02:44:34;102322.09;;;4.66;73.29
17362;BME280;8798;51.938;4.348;2023-02-15T02:47:13;102332.81;;;4.65;73.94
17362;BME280;8798;51.938;4.348;2023-02-15T02:49:45;102334.63;;;4.64;73.08
17362;BME280;8798;51.938;4.348;2023-02-15T02:52:35;102324.06;;;4.63;73.22
17362;BME280;8798;51.938;4.348;2023-02-15T02:55:06;102316.22;;;4.60;73.24
17362;BME280;8798;51.938;4.348;2023-02-15T02:57:37;102319.88;;;4.57;73.28
17362;BME280;8798;51.938;4.348;2023-02-15T03:00:08;102313.81;;;4.55;73.61
17362;BME280;8798;51.938;4.348;2023-02-15T03:02:39;102316.47;;;4.55;73.62
17362;BME280;8798;51.938;4.348;2023-02-15T03:05:13;102313.94;;;4.52;73.52
17362;BME280;8798;51.938;4.348;2023-02-15T03:07:46;102304.31;;;4.49;73.39
17362;BME280;8798;51.938;4.348;2023-02-15T03:10:18;102313.25;;;4.48;73.77
17362;BME280;8798;51.938;4.348;2023-02-15T03:12:48;102306.28;;;4.46;73.67
17362;BME280;8798;51.938;4.348;2023-02-15T03:15:19;102302.81;;;4.44;73.33
17362;BME280;8798;51.938;4.348;2023-02-15T03:17:51;102301.13;;;4.43;73.54
17362;BME280;8798;51.938;4.348;2023-02-15T03:20:24;102292.41;;;4.39;73.82
17362;BME280;8798;51.938;4.348;2023-02-15T03:22:55;102296.94;;;4.37;73.66
17362;BME280;8798;51.938;4.348;2023-02-15T03:25:26;102295.28;;;4.35;73.54
17362;BME280;8798;51.938;4.348;2023-02-15T03:27:59;102291.84;;;4.32;73.56
17362;BME280;8798;51.938;4.348;2023-02-15T03:30:31;102288.41;;;4.30;73.68
17362;BME280;8798;51.938;4.348;2023-02-15T03:33:00;102286.69;;;4.29;73.56
17362;BME280;8798;51.938;4.348;2023-02-15T03:35:33;102286.84;;;4.26;73.59
17362;BME280;8798;51.938;4.348;2023-02-15T03:38:05;102285.13;;;4.25;73.23
17362;BME280;8798;51.938;4.348;2023-02-15T03:40:37;102281.69;;;4.23;73.31
17362;BME280;8798;51.938;4.348;2023-02-15T03:43:29;102279.06;;;4.22;73.78
17362;BME280;8798;51.938;4.348;2023-02-15T03:46:03;102274.78;;;4.19;73.57
17362;BME280;8798;51.938;4.348;2023-02-15T03:48:37;102298.63;;;4.21;73.75
17362;BME280;8798;51.938;4.348;2023-02-15T03:51:10;102289.78;;;4.20;73.69
17362;BME280;8798;51.938;4.348;2023-02-15T03:53:57;102284.63;;;4.17;74.25
17362;BME280;8798;51.938;4.348;2023-02-15T03:56:26;102288.22;;;4.16;73.22
17362;BME280;8798;51.938;4.348;2023-02-15T03:58:54;102290.94;;;4.15;73.92
17362;BME280;8798;51.938;4.348;2023-02-15T04:01:42;102301.53;;;4.16;73.59
17362;BME280;8798;51.938;4.348;2023-02-15T04:04:28;102301.53;;;4.16;73.60
17362;BME280;8798;51.938;4.348;2023-02-15T04:07:00;102305.09;;;4.15;74.08
17362;BME280;8798;51.938;4.348;2023-02-15T04:09:28;102301.69;;;4.13;73.97
17362;BME280;8798;51.938;4.348;2023-02-15T04:12:13;102292.97;;;4.09;73.62
17362;BME280;8798;51.938;4.348;2023-02-15T04:14:41;102292.25;;;4.06;73.86
17362;BME280;8798;51.938;4.348;2023-02-15T04:17:27;102276.44;;;4.03;73.47
17362;BME280;8798;51.938;4.348;2023-02-15T04:19:55;102278.34;;;4.01;73.52
17362;BME280;8798;51.938;4.348;2023-02-15T04:22:41;102267.81;;;3.98;73.68
17362;BME280;8798;51.938;4.348;2023-02-15T04:25:27;102266.19;;;3.95;73.51
17362;BME280;8798;51.938;4.348;2023-02-15T04:27:55;102263.63;;;3.94;73.72
17362;BME280;8798;51.938;4.348;2023-02-15T04:30:24;102263.69;;;3.92;73.65
17362;BME280;8798;51.938;4.348;2023-02-15T04:32:53;102264.63;;;3.91;74.06
17362;BME280;8798;51.938;4.348;2023-02-15T04:35:22;102270.84;;;3.90;73.32
17362;BME280;8798;51.938;4.348;2023-02-15T04:37:51;102265.53;;;3.90;73.61
17362;BME280;8798;51.938;4.348;2023-02-15T04:40:19;102275.31;;;3.90;73.81
17362;BME280;8798;51.938;4.348;2023-02-15T04:42:47;102273.59;;;3.88;73.51
17362;BME280;8798;51.938;4.348;2023-02-15T04:45:16;102269.19;;;3.87;73.84
17362;BME280;8798;51.938;4.348;2023-02-15T04:47:44;102283.34;;;3.88;73.81
17362;BME280;8798;51.938;4.348;2023-02-15T04:50:12;102271.97;;;3.86;73.66
17362;BME280;8798;51.938;4.348;2023-02-15T04:52:40;102280.00;;;3.84;73.74
17362;BME280;8798;51.938;4.348;2023-02-15T04:55:09;102285.31;;;3.84;74.03
17362;BME280;8798;51.938;4.348;2023-02-15T04:57:37;102292.31;;;3.85;73.80
17362;BME280;8798;51.938;4.348;2023-02-15T05:00:06;102294.06;;;3.86;74.14
17362;BME280;8798;51.938;4.348;2023-02-15T05:02:35;102308.22;;;3.87;73.97
17362;BME280;8798;51.938;4.348;2023-02-15T05:05:03;102312.59;;;3.88;74.03
17362;BME280;8798;51.938;4.348;2023-02-15T05:07:31;102331.06;;;3.91;74.06
17362;BME280;8798;51.938;4.348;2023-02-15T05:09:59;102340.75;;;3.92;73.78
17362;BME280;8798;51.938;4.348;2023-02-15T05:12:28;102348.53;;;3.97;73.84
17362;BME280;8798;51.938;4.348;2023-02-15T05:14:56;102368.78;;;3.99;73.92
17362;BME280;8798;51.938;4.348;2023-02-15T05:17:24;102396.00;;;4.04;74.29
17362;BME280;8798;51.938;4.348;2023-02-15T05:19:51;102414.47;;;4.07;74.10
17362;BME280;8798;51.938;4.348;2023-02-15T05:22:19;102433.81;;;4.11;73.91
17362;BME280;8798;51.938;4.348;2023-02-15T05:24:47;102443.47;;;4.14;74.19
17362;BME280;8798;51.938;4.348;2023-02-15T05:27:36;102467.19;;;4.18;74.32
17362;BME280;8798;51.938;4.348;2023-02-15T05:30:21;102471.56;;;4.19;74.20
17362;BME280;8798;51.938;4.348;2023-02-15T05:32:49;102471.56;;;4.19;73.81
17362;BME280;8798;51.938;4.348;2023-02-15T05:35:18;102476.88;;;4.19;74.10
17362;BME280;8798;51.938;4.348;2023-02-15T05:37:46;102479.53;;;4.19;73.91
17362;BME280;8798;51.938;4.348;2023-02-15T05:40:14;102478.59;;;4.20;74.10
17362;BME280;8798;51.938;4.348;2023-02-15T05:42:43;102483.91;;;4.20;74.07
17362;BME280;8798;51.938;4.348;2023-02-15T05:45:11;102488.38;;;4.20;74.19
17362;BME280;8798;51.938;4.348;2023-02-15T05:47:39;102499.81;;;4.22;73.92
17362;BME280;8798;51.938;4.348;2023-02-15T05:50:07;102497.16;;;4.22;74.02
17362;BME280;8798;51.938;4.348;2023-02-15T05:52:36;102504.13;;;4.24;74.38
17362;BME280;8798;51.938;4.348;2023-02-15T05:55:05;102505.91;;;4.24;74.08
17362;BME280;8798;51.938;4.348;2023-02-15T05:57:35;102507.63;;;4.25;74.14
17362;BME280;8798;51.938;4.348;2023-02-15T06:00:05;102520.88;;;4.26;74.07
17362;BME280;8798;51.938;4.348;2023-02-15T06:02:34;102534.13;;;4.28;74.32
17362;BME280;8798;51.938;4.348;2023-02-15T06:05:02;102535.81;;;4.29;74.16
17362;BME280;8798;51.938;4.348;2023-02-15T06:07:30;102547.19;;;4.32;74.32
17362;BME280;8798;51.938;4.348;2023-02-15T06:09:58;102563.88;;;4.36;74.47
17362;BME280;8798;51.938;4.348;2023-02-15T06:12:26;102585.88;;;4.40;74.00
17362;BME280;8798;51.938;4.348;2023-02-15T06:14:54;102602.59;;;4.43;74.22
17362;BME280;8798;51.938;4.348;2023-02-15T06:17:23;102605.16;;;4.45;74.16
17362;BME280;8798;51.938;4.348;2023-02-15T06:19:51;102606.81;;;4.47;74.44
17362;BME280;8798;51.938;4.348;2023-02-15T06:22:18;102609.47;;;4.47;73.97
17362;BME280;8798;51.938;4.348;2023-02-15T06:24:46;102618.25;;;4.49;74.49
17362;BME280;8798;51.938;4.348;2023-02-15T06:27:14;102631.50;;;4.51;74.00
17362;BME280;8798;51.938;4.348;2023-02-15T06:29:42;102645.53;;;4.55;74.39
17362;BME280;8798;51.938;4.348;2023-02-15T06:32:10;102657.81;;;4.57;74.49
17362;BME280;8798;51.938;4.348;2023-02-15T06:34:39;102669.22;;;4.61;74.53
17362;BME280;8798;51.938;4.348;2023-02-15T06:37:07;102672.69;;;4.63;74.45
17362;BME280;8798;51.938;4.348;2023-02-15T06:39:35;102678.00;;;4.63;74.66
17362;BME280;8798;51.938;4.348;2023-02-15T06:42:03;102678.00;;;4.63;74.60
17362;BME280;8798;51.938;4.348;2023-02-15T06:44:31;102683.25;;;4.64;74.49
17362;BME280;8798;51.938;4.348;2023-02-15T06:46:59;102681.44;;;4.65;74.14
17362;BME280;8798;51.938;4.348;2023-02-15T06:49:27;102677.06;;;4.64;74.39
17362;BME280;8798;51.938;4.348;2023-02-15T06:51:56;102671.78;;;4.62;74.76
17362;BME280;8798;51.938;4.348;2023-02-15T06:54:24;102671.78;;;4.62;74.42
17362;BME280;8798;51.938;4.348;2023-02-15T06:56:51;102670.94;;;4.62;74.72
17362;BME280;8798;51.938;4.348;2023-02-15T06:59:19;102668.38;;;4.60;74.70
17362;BME280;8798;51.938;4.348;2023-02-15T07:01:47;102663.03;;;4.60;74.52
17362;BME280;8798;51.938;4.348;2023-02-15T07:04:15;102664.81;;;4.60;74.79
17362;BME280;8798;51.938;4.348;2023-02-15T07:06:43;102658.63;;;4.59;74.61
17362;BME280;8798;51.938;4.348;2023-02-15T07:09:13;102661.28;;;4.59;74.79
17362;BME280;8798;51.938;4.348;2023-02-15T07:11:41;102664.81;;;4.60;74.50
17362;BME280;8798;51.938;4.348;2023-02-15T07:14:27;102662.16;;;4.60;74.63
17362;BME280;8798;51.938;4.348;2023-02-15T07:16:55;102663.91;;;4.61;75.01
17362;BME280;8798;51.938;4.348;2023-02-15T07:19:22;102662.94;;;4.62;74.42
17362;BME280;8798;51.938;4.348;2023-02-15T07:21:50;102666.47;;;4.62;74.67
17362;BME280;8798;51.938;4.348;2023-02-15T07:24:19;102680.56;;;4.64;75.02
17362;BME280;8798;51.938;4.348;2023-02-15T07:26:47;102691.97;;;4.68;74.33
17362;BME280;8798;51.938;4.348;2023-02-15T07:29:15;102706.94;;;4.70;74.91
17362;BME280;8798;51.938;4.348;2023-02-15T07:31:43;102716.50;;;4.74;74.71
17362;BME280;8798;51.938;4.348;2023-02-15T07:34:12;102721.78;;;4.76;74.84
17362;BME280;8798;51.938;4.348;2023-02-15T07:36:39;102736.69;;;4.80;74.59
17362;BME280;8798;51.938;4.348;2023-02-15T07:39:07;102753.38;;;4.84;74.78
17362;BME280;8798;51.938;4.348;2023-02-15T07:41:36;102763.88;;;4.87;75.22
17362;BME280;8798;51.938;4.348;2023-02-15T07:44:04;102777.94;;;4.90;74.69
17362;BME280;8798;51.938;4.348;2023-02-15T07:46:32;102791.13;;;4.93;74.51
17362;BME280;8798;51.938;4.348;2023-02-15T07:49:00;102802.53;;;4.97;74.80
17362;BME280;8798;51.938;4.348;2023-02-15T07:51:28;102819.22;;;5.01;75.21
17362;BME280;8798;51.938;4.348;2023-02-15T07:53:56;102824.41;;;5.04;75.06
17362;BME280;8798;51.938;4.348;2023-02-15T07:56:23;102836.72;;;5.06;75.50
17362;BME280;8798;51.938;4.348;2023-02-15T07:58:53;102852.50;;;5.11;75.50
17362;BME280;8798;51.938;4.348;2023-02-15T08:01:23;102855.91;;;5.14;75.33
17362;BME280;8798;51.938;4.348;2023-02-15T08:03:52;102872.63;;;5.18;75.08
17362;BME280;8798;51.938;4.348;2023-02-15T08:06:21;102880.41;;;5.23;75.69
17362;BME280;8798;51.938;4.348;2023-02-15T08:08:49;102906.00;;;5.27;75.06
17362;BME280;8798;51.938;4.348;2023-02-15T08:11:19;102920.00;;;5.32;75.69
17362;BME280;8798;51.938;4.348;2023-02-15T08:13:59;102927.84;;;5.35;75.28
17362;BME280;8798;51.938;4.348;2023-02-15T08:16:31;102938.31;;;5.39;75.29
17362;BME280;8798;51.938;4.348;2023-02-15T08:19:01;102955.00;;;5.43;74.90
17362;BME280;8798;51.938;4.348;2023-02-15T08:21:30;102969.09;;;5.47;76.10
17362;BME280;8798;51.938;4.348;2023-02-15T08:23:59;102976.88;;;5.51;75.33
17362;BME280;8798;51.938;4.348;2023-02-15T08:26:28;102989.16;;;5.55;74.92
17362;BME280;8798;51.938;4.348;2023-02-15T08:28:57;102997.94;;;5.57;75.54
17362;BME280;8798;51.938;4.348;2023-02-15T08:31:26;102998.75;;;5.59;75.52
17362;BME280;8798;51.938;4.348;2023-02-15T08:33:55;103015.47;;;5.63;75.22
17362;BME280;8798;51.938;4.348;2023-02-15T08:36:25;103023.31;;;5.66;75.55
17362;BME280;8798;51.938;4.348;2023-02-15T08:38:55;103032.06;;;5.70;76.24
17362;BME280;8798;51.938;4.348;2023-02-15T08:41:25;103041.59;;;5.75;76.28
17362;BME280;8798;51.938;4.348;2023-02-15T08:43:54;103054.81;;;5.78;75.81
17362;BME280;8798;51.938;4.348;2023-02-15T08:46:27;103066.22;;;5.82;75.69
17362;BME280;8798;51.938;4.348;2023-02-15T08:48:57;103072.22;;;5.87;76.10
17362;BME280;8798;51.938;4.348;2023-02-15T08:51:27;103091.59;;;5.91;75.72
17362;BME280;8798;51.938;4.348;2023-02-15T08:53:56;103103.06;;;5.94;75.30
17362;BME280;8798;51.938;4.348;2023-02-15T08:56:27;103121.41;;;6.02;75.29
17362;BME280;8798;51.938;4.348;2023-02-15T08:58:56;103153.91;;;6.12;75.98
17362;BME280;8798;51.938;4.348;2023-02-15T09:01:27;103171.53;;;6.16;75.24
17362;BME280;8798;51.938;4.348;2023-02-15T09:03:57;103182.06;;;6.19;75.70
17362;BME280;8798;51.938;4.348;2023-02-15T09:06:26;103178.31;;;6.23;75.85
17362;BME280;8798;51.938;4.348;2023-02-15T09:08:54;103203.88;;;6.29;75.98
17362;BME280;8798;51.938;4.348;2023-02-15T09:11:23;103226.78;;;6.34;75.95
17362;BME280;8798;51.938;4.348;2023-02-15T09:13:53;103238.06;;;6.41;75.98
17362;BME280;8798;51.938;4.348;2023-02-15T09:16:23;103260.97;;;6.46;75.73
17362;BME280;8798;51.938;4.348;2023-02-15T09:18:53;103271.44;;;6.51;76.50
17362;BME280;8798;51.938;4.348;2023-02-15T09:21:25;103283.75;;;6.55;76.33
17362;BME280;8798;51.938;4.348;2023-02-15T09:23:56;103302.16;;;6.61;75.98
17362;BME280;8798;51.938;4.348;2023-02-15T09:26:27;103318.81;;;6.68;75.71
17362;BME280;8798;51.938;4.348;2023-02-15T09:28:57;103329.22;;;6.74;76.27
17362;BME280;8798;51.938;4.348;2023-02-15T09:31:28;103337.91;;;6.79;75.37
17362;BME280;8798;51.938;4.348;2023-02-15T09:33:58;103361.63;;;6.87;75.86
17362;BME280;8798;51.938;4.348;2023-02-15T09:36:30;103372.91;;;6.94;75.69
17362;BME280;8798;51.938;4.348;2023-02-15T09:39:01;103396.72;;;7.00;76.56
17362;BME280;8798;51.938;4.348;2023-02-15T09:41:44;103416.81;;;7.08;76.48
17362;BME280;8798;51.938;4.348;2023-02-15T09:44:22;103441.41;;;7.17;75.77
17362;BME280;8798;51.938;4.348;2023-02-15T09:47:12;103461.59;;;7.24;76.32
17362;BME280;8798;51.938;4.348;2023-02-15T09:49:51;103475.59;;;7.30;75.92
17362;BME280;8798;51.938;4.348;2023-02-15T09:52:48;103494.94;;;7.37;76.75
17362;BME280;8798;51.938;4.348;2023-02-15T09:55:42;103502.69;;;7.43;76.07
17362;BME280;8798;51.938;4.348;2023-02-15T09:58:19;103515.84;;;7.48;76.01
17362;BME280;8798;51.938;4.348;2023-02-15T10:00:56;103515.66;;;7.52;76.91
17362;BME280;8798;51.938;4.348;2023-02-15T10:03:39;103519.06;;;7.56;76.46
17362;BME280;8798;51.938;4.348;2023-02-15T10:06:31;103527.75;;;7.61;76.88
17362;BME280;8798;51.938;4.348;2023-02-15T10:09:08;103536.53;;;7.65;76.44
17362;BME280;8798;51.938;4.348;2023-02-15T10:11:52;103547.81;;;7.71;76.54
17362;BME280;8798;51.938;4.348;2023-02-15T10:14:40;103562.78;;;7.77;76.49
17362;BME280;8798;51.938;4.348;2023-02-15T10:17:21;103574.06;;;7.84;76.67
17362;BME280;8798;51.938;4.348;2023-02-15T10:19:59;103592.50;;;7.91;77.05
17362;BME280;8798;51.938;4.348;2023-02-15T10:22:41;103603.88;;;7.96;76.46
17362;BME280;8798;51.938;4.348;2023-02-15T10:25:25;103617.84;;;8.03;76.15
17362;BME280;8798;51.938;4.348;2023-02-15T10:27:59;103626.53;;;8.08;76.24
17362;BME280;8798;51.938;4.348;2023-02-15T10:30:37;103635.22;;;8.13;76.69
17362;BME280;8798;51.938;4.348;2023-02-15T10:33:15;103625.34;;;8.15;76.50
17362;BME280;8798;51.938;4.348;2023-02-15T10:35:55;103619.88;;;8.18;76.56
17362;BME280;8798;51.938;4.348;2023-02-15T10:38:32;103620.66;;;8.21;76.17
17362;BME280;8798;51.938;4.348;2023-02-15T10:41:17;103611.69;;;8.22;76.33
17362;BME280;8798;51.938;4.348;2023-02-15T10:44:00;103604.47;;;8.24;75.83
17362;BME280;8798;51.938;4.348;2023-02-15T10:47:02;103604.31;;;8.27;76.44
17362;BME280;8798;51.938;4.348;2023-02-15T10:49:44;103587.31;;;8.28;76.10
17362;BME280;8798;51.938;4.348;2023-02-15T10:52:25;103593.47;;;8.30;76.24
17362;BME280;8798;51.938;4.348;2023-02-15T10:55:05;103598.63;;;8.34;76.09
17362;BME280;8798;51.938;4.348;2023-02-15T10:57:42;103595.75;;;8.39;76.43
17362;BME280;8798;51.938;4.348;2023-02-15T11:00:15;103599.16;;;8.43;76.54
17362;BME280;8798;51.938;4.348;2023-02-15T11:02:59;103595.44;;;8.47;76.58
17362;BME280;8798;51.938;4.348;2023-02-15T11:05:37;103599.78;;;8.49;76.53
17362;BME280;8798;51.938;4.348;2023-02-15T11:08:10;103606.75;;;8.53;76.19
17362;BME280;8798;51.938;4.348;2023-02-15T11:10:44;103614.50;;;8.59;75.88
17362;BME280;8798;51.938;4.348;2023-02-15T11:13:16;103600.16;;;8.60;76.46
17362;BME280;8798;51.938;4.348;2023-02-15T11:15:47;103607.19;;;8.63;76.32
17362;BME280;8798;51.938;4.348;2023-02-15T11:18:24;103610.53;;;8.68;76.23
17362;BME280;8798;51.938;4.348;2023-02-15T11:20:56;103627.19;;;8.75;76.24
17362;BME280;8798;51.938;4.348;2023-02-15T11:23:27;103630.44;;;8.81;76.22
17362;BME280;8798;51.938;4.348;2023-02-15T11:25:59;103660.53;;;8.88;76.39
17362;BME280;8798;51.938;4.348;2023-02-15T11:28:31;103658.50;;;8.93;76.22
17362;BME280;8798;51.938;4.348;2023-02-15T11:31:10;103671.69;;;8.98;76.40
17362;BME280;8798;51.938;4.348;2023-02-15T11:33:44;103674.88;;;9.06;76.22
17362;BME280;8798;51.938;4.348;2023-02-15T11:36:16;103683.66;;;9.10;76.23
17362;BME280;8798;51.938;4.348;2023-02-15T11:38:49;103688.75;;;9.16;76.36
17362;BME280;8798;51.938;4.348;2023-02-15T11:41:23;103697.44;;;9.21;76.03
17362;BME280;8798;51.938;4.348;2023-02-15T11:43:56;103707.84;;;9.27;75.99
17362;BME280;8798;51.938;4.348;2023-02-15T11:46:25;103707.66;;;9.32;75.95
17362;BME280;8798;51.938;4.348;2023-02-15T11:48:53;103710.13;;;9.36;76.07
17362;BME280;8798;51.938;4.348;2023-02-15T11:51:22;103716.22;;;9.40;75.80
17362;BME280;8798;51.938;4.348;2023-02-15T11:53:50;103711.56;;;9.43;75.68
17362;BME280;8798;51.938;4.348;2023-02-15T11:56:21;103713.19;;;9.47;75.82
17362;BME280;8798;51.938;4.348;2023-02-15T11:58:54;103712.16;;;9.50;75.70
17362;BME280;8798;51.938;4.348;2023-02-15T12:01:29;103719.91;;;9.56;75.89
17362;BME280;8798;51.938;4.348;2023-02-15T12:04:00;103719.69;;;9.61;75.77
17362;BME280;8798;51.938;4.348;2023-02-15T12:06:34;103726.72;;;9.63;75.86
17362;BME280;8798;51.938;4.348;2023-02-15T12:09:10;103729.13;;;9.69;75.86
17362;BME280;8798;51.938;4.348;2023-02-15T12:11:43;103729.78;;;9.75;75.60
17362;BME280;8798;51.938;4.348;2023-02-15T12:14:12;103740.28;;;9.79;75.69
17362;BME280;8798;51.938;4.348;2023-02-15T12:16:44;103756.00;;;9.87;75.40
17362;BME280;8798;51.938;4.348;2023-02-15T12:19:30;103764.63;;;9.94;75.35
17362;BME280;8798;51.938;4.348;2023-02-15T12:22:01;103766.16;;;9.99;75.34
17362;BME280;8798;51.938;4.348;2023-02-15T12:24:32;103762.34;;;10.03;75.32
17362;BME280;8798;51.938;4.348;2023-02-15T12:27:04;103775.50;;;10.09;75.21
17362;BME280;8798;51.938;4.348;2023-02-15T12:29:39;103777.06;;;10.13;75.13
17362;BME280;8798;51.938;4.348;2023-02-15T12:32:11;103754.56;;;10.16;75.21
17362;BME280;8798;51.938;4.348;2023-02-15T12:34:45;103758.84;;;10.20;75.05
17362;BME280;8798;51.938;4.348;2023-02-15T12:37:19;103763.13;;;10.24;75.14
17362;BME280;8798;51.938;4.348;2023-02-15T12:39:53;103765.63;;;10.29;75.12
17362;BME280;8798;51.938;4.348;2023-02-15T12:42:24;103769.00;;;10.32;75.09
17362;BME280;8798;51.938;4.348;2023-02-15T12:44:54;103758.09;;;10.36;75.24
17362;BME280;8798;51.938;4.348;2023-02-15T12:47:22;103757.00;;;10.40;74.64
17362;BME280;8798;51.938;4.348;2023-02-15T12:50:22;103755.97;;;10.42;74.79
17362;BME280;8798;51.938;4.348;2023-02-15T12:53:06;103740.66;;;10.44;74.35
17362;BME280;8798;51.938;4.348;2023-02-15T12:55:35;103735.16;;;10.46;74.77
17362;BME280;8798;51.938;4.348;2023-02-15T12:58:16;103728.81;;;10.48;74.48
17362;BME280;8798;51.938;4.348;2023-02-15T13:00:45;103719.72;;;10.51;74.78
17362;BME280;8798;51.938;4.348;2023-02-15T13:03:17;103718.56;;;10.55;74.66
17362;BME280;8798;51.938;4.348;2023-02-15T13:05:48;103716.63;;;10.59;74.44
17362;BME280;8798;51.938;4.348;2023-02-15T13:08:19;103702.22;;;10.60;74.37
17362;BME280;8798;51.938;4.348;2023-02-15T13:10:56;103695.88;;;10.61;74.55
17362;BME280;8798;51.938;4.348;2023-02-15T13:13:29;103685.13;;;10.61;74.30
17362;BME280;8798;51.938;4.348;2023-02-15T13:15:58;103669.78;;;10.63;74.08
17362;BME280;8798;51.938;4.348;2023-02-15T13:18:31;103651.94;;;10.62;74.07
17362;BME280;8798;51.938;4.348;2023-02-15T13:21:06;103634.06;;;10.61;74.09
17362;BME280;8798;51.938;4.348;2023-02-15T13:23:38;103616.13;;;10.61;74.04
17362;BME280;8798;51.938;4.348;2023-02-15T13:26:12;103606.25;;;10.62;74.09
17362;BME280;8798;51.938;4.348;2023-02-15T13:28:46;103598.09;;;10.63;73.81
17362;BME280;8798;51.938;4.348;2023-02-15T13:31:17;103589.84;;;10.66;73.74
17362;BME280;8798;51.938;4.348;2023-02-15T13:33:49;103579.91;;;10.68;74.25
17362;BME280;8798;51.938;4.348;2023-02-15T13:36:23;103585.97;;;10.72;74.03
17362;BME280;8798;51.938;4.348;2023-02-15T13:39:03;103578.69;;;10.74;73.76
17362;BME280;8798;51.938;4.348;2023-02-15T13:41:45;103581.13;;;10.79;73.94
17362;BME280;8798;51.938;4.348;2023-02-15T13:44:23;103584.41;;;10.84;73.97
17362;BME280;8798;51.938;4.348;2023-02-15T13:47:03;103573.56;;;10.85;73.98